sensor_id;sensor_type;location;lat;lon;timestamp;P1;durP1;ratioP1;P2;durP2;ratioP2
45620;SDS011;31345;51.522;10.702;2024-02-14T00:01:06;7.90;;;4.83;;
45620;SDS011;31345;51.522;10.702;2024-02-14T00:03:35;7.03;;;4.90;;
45620;SDS011;31345;51.522;10.702;2024-02-14T00:06:04;7.50;;;4.90;;
45620;SDS011;31345;51.522;10.702;2024-02-14T00:08:37;7.53;;;4.80;;
45620;SDS011;31345;51.522;10.702;2024-02-14T00:11:11;8.17;;;5.50;;
45620;SDS011;31345;51.522;10.702;2024-02-14T00:13:40;9.53;;;5.07;;
45620;SDS011;31345;51.522;10.702;2024-02-14T00:16:08;8.30;;;5.27;;
45620;SDS011;31345;51.522;10.702;2024-02-14T00:18:40;6.80;;;4.43;;
45620;SDS011;31345;51.522;10.702;2024-02-14T00:21:08;6.87;;;4.80;;
45620;SDS011;31345;51.522;10.702;2024-02-14T00:23:35;7.80;;;4.70;;
45620;SDS011;31345;51.522;10.702;2024-02-14T00:26:03;10.13;;;5.30;;
45620;SDS011;31345;51.522;10.702;2024-02-14T00:28:32;7.33;;;5.10;;
45620;SDS011;31345;51.522;10.702;2024-02-14T00:31:00;6.83;;;4.70;;
45620;SDS011;31345;51.522;10.702;2024-02-14T00:33:32;8.27;;;4.47;;
45620;SDS011;31345;51.522;10.702;2024-02-14T00:36:05;7.57;;;4.57;;
45620;SDS011;31345;51.522;10.702;2024-02-14T00:38:33;8.00;;;4.67;;
45620;SDS011;31345;51.522;10.702;2024-02-14T00:41:06;6.03;;;4.67;;
45620;SDS011;31345;51.522;10.702;2024-02-14T00:43:35;7.30;;;4.87;;
45620;SDS011;31345;51.522;10.702;2024-02-14T00:46:03;8.03;;;4.90;;
45620;SDS011;31345;51.522;10.702;2024-02-14T00:48:36;7.50;;;4.80;;
45620;SDS011;31345;51.522;10.702;2024-02-14T00:51:03;6.53;;;5.13;;
45620;SDS011;31345;51.522;10.702;2024-02-14T00:53:31;7.80;;;4.80;;
45620;SDS011;31345;51.522;10.702;2024-02-14T00:56:04;7.70;;;4.67;;
45620;SDS011;31345;51.522;10.702;2024-02-14T00:58:39;7.97;;;4.87;;
45620;SDS011;31345;51.522;10.702;2024-02-14T01:01:12;8.17;;;4.97;;
45620;SDS011;31345;51.522;10.702;2024-02-14T01:03:44;11.17;;;4.83;;
45620;SDS011;31345;51.522;10.702;2024-02-14T01:06:12;7.70;;;5.10;;
45620;SDS011;31345;51.522;10.702;2024-02-14T01:08:41;8.93;;;4.87;;
45620;SDS011;31345;51.522;10.702;2024-02-14T01:11:14;7.87;;;4.83;;
45620;SDS011;31345;51.522;10.702;2024-02-14T01:13:43;7.53;;;4.80;;
45620;SDS011;31345;51.522;10.702;2024-02-14T01:16:15;7.70;;;4.70;;
45620;SDS011;31345;51.522;10.702;2024-02-14T01:18:43;7.97;;;5.13;;
45620;SDS011;31345;51.522;10.702;2024-02-14T01:21:15;9.57;;;5.10;;
45620;SDS011;31345;51.522;10.702;2024-02-14T01:23:48;9.10;;;5.27;;
45620;SDS011;31345;51.522;10.702;2024-02-14T01:26:16;8.23;;;5.90;;
45620;SDS011;31345;51.522;10.702;2024-02-14T01:28:45;6.90;;;4.90;;
45620;SDS011;31345;51.522;10.702;2024-02-14T01:31:12;7.57;;;4.90;;
45620;SDS011;31345;51.522;10.702;2024-02-14T01:33:40;11.33;;;5.73;;
45620;SDS011;31345;51.522;10.702;2024-02-14T01:36:13;8.93;;;4.53;;
45620;SDS011;31345;51.522;10.702;2024-02-14T01:38:42;7.67;;;5.37;;
45620;SDS011;31345;51.522;10.702;2024-02-14T01:41:09;7.37;;;5.43;;
45620;SDS011;31345;51.522;10.702;2024-02-14T01:43:37;7.70;;;4.90;;
45620;SDS011;31345;51.522;10.702;2024-02-14T01:46:06;7.60;;;5.43;;
45620;SDS011;31345;51.522;10.702;2024-02-14T01:48:40;7.53;;;4.73;;
45620;SDS011;31345;51.522;10.702;2024-02-14T01:51:13;6.93;;;5.47;;
45620;SDS011;31345;51.522;10.702;2024-02-14T01:53:45;9.87;;;5.83;;
45620;SDS011;31345;51.522;10.702;2024-02-14T01:56:18;8.97;;;4.87;;
45620;SDS011;31345;51.522;10.702;2024-02-14T01:58:46;8.20;;;5.53;;
45620;SDS011;31345;51.522;10.702;2024-02-14T02:01:15;7.10;;;5.13;;
45620;SDS011;31345;51.522;10.702;2024-02-14T02:03:48;8.80;;;5.40;;
45620;SDS011;31345;51.522;10.702;2024-02-14T02:06:16;10.77;;;5.40;;
45620;SDS011;31345;51.522;10.702;2024-02-14T02:08:44;7.43;;;5.00;;
45620;SDS011;31345;51.522;10.702;2024-02-14T02:11:17;9.37;;;5.87;;
45620;SDS011;31345;51.522;10.702;2024-02-14T02:13:50;7.97;;;5.30;;
45620;SDS011;31345;51.522;10.702;2024-02-14T02:16:24;8.63;;;5.90;;
45620;SDS011;31345;51.522;10.702;2024-02-14T02:18:52;8.50;;;5.37;;
45620;SDS011;31345;51.522;10.702;2024-02-14T02:21:20;7.70;;;5.37;;
45620;SDS011;31345;51.522;10.702;2024-02-14T02:23:56;7.80;;;5.50;;
45620;SDS011;31345;51.522;10.702;2024-02-14T02:26:28;7.77;;;5.30;;
45620;SDS011;31345;51.522;10.702;2024-02-14T02:29:01;9.00;;;5.23;;
45620;SDS011;31345;51.522;10.702;2024-02-14T02:31:34;8.77;;;5.03;;
45620;SDS011;31345;51.522;10.702;2024-02-14T02:34:01;8.53;;;5.20;;
45620;SDS011;31345;51.522;10.702;2024-02-14T02:36:34;7.30;;;5.17;;
45620;SDS011;31345;51.522;10.702;2024-02-14T02:39:08;6.87;;;4.63;;
45620;SDS011;31345;51.522;10.702;2024-02-14T02:41:41;7.83;;;5.33;;
45620;SDS011;31345;51.522;10.702;2024-02-14T02:44:13;8.07;;;5.07;;
45620;SDS011;31345;51.522;10.702;2024-02-14T02:46:46;7.33;;;5.17;;
45620;SDS011;31345;51.522;10.702;2024-02-14T02:49:14;8.43;;;6.00;;
45620;SDS011;31345;51.522;10.702;2024-02-14T02:51:47;8.03;;;5.03;;
45620;SDS011;31345;51.522;10.702;2024-02-14T02:54:21;7.37;;;5.07;;
45620;SDS011;31345;51.522;10.702;2024-02-14T02:56:54;7.17;;;5.20;;
45620;SDS011;31345;51.522;10.702;2024-02-14T02:59:27;8.67;;;4.90;;
45620;SDS011;31345;51.522;10.702;2024-02-14T03:02:00;8.03;;;4.87;;
45620;SDS011;31345;51.522;10.702;2024-02-14T03:04:28;7.83;;;5.20;;
45620;SDS011;31345;51.522;10.702;2024-02-14T03:07:03;7.27;;;4.23;;
45620;SDS011;31345;51.522;10.702;2024-02-14T03:09:34;7.87;;;4.63;;
45620;SDS011;31345;51.522;10.702;2024-02-14T03:12:02;8.60;;;4.80;;
45620;SDS011;31345;51.522;10.702;2024-02-14T03:14:30;6.27;;;4.60;;
45620;SDS011;31345;51.522;10.702;2024-02-14T03:16:59;11.33;;;4.87;;
45620;SDS011;31345;51.522;10.702;2024-02-14T03:19:32;9.27;;;5.23;;
45620;SDS011;31345;51.522;10.702;2024-02-14T03:22:05;9.77;;;5.97;;
45620;SDS011;31345;51.522;10.702;2024-02-14T03:24:36;10.30;;;5.93;;
45620;SDS011;31345;51.522;10.702;2024-02-14T03:27:04;9.53;;;4.97;;
45620;SDS011;31345;51.522;10.702;2024-02-14T03:29:37;8.60;;;5.27;;
45620;SDS011;31345;51.522;10.702;2024-02-14T03:32:10;9.97;;;4.87;;
45620;SDS011;31345;51.522;10.702;2024-02-14T03:34:37;6.87;;;5.03;;
45620;SDS011;31345;51.522;10.702;2024-02-14T03:37:05;7.40;;;4.83;;
45620;SDS011;31345;51.522;10.702;2024-02-14T03:39:39;8.23;;;5.30;;
45620;SDS011;31345;51.522;10.702;2024-02-14T03:42:07;9.13;;;5.17;;
45620;SDS011;31345;51.522;10.702;2024-02-14T03:44:35;8.73;;;5.10;;
45620;SDS011;31345;51.522;10.702;2024-02-14T03:47:04;7.60;;;4.67;;
45620;SDS011;31345;51.522;10.702;2024-02-14T03:49:36;8.27;;;4.53;;
45620;SDS011;31345;51.522;10.702;2024-02-14T03:52:09;9.20;;;5.17;;
45620;SDS011;31345;51.522;10.702;2024-02-14T03:54:37;9.30;;;4.77;;
45620;SDS011;31345;51.522;10.702;2024-02-14T03:57:12;11.00;;;4.40;;
45620;SDS011;31345;51.522;10.702;2024-02-14T03:59:45;8.10;;;4.83;;
45620;SDS011;31345;51.522;10.702;2024-02-14T04:02:18;9.53;;;5.33;;
45620;SDS011;31345;51.522;10.702;2024-02-14T04:04:46;7.43;;;4.87;;
45620;SDS011;31345;51.522;10.702;2024-02-14T04:07:14;7.57;;;4.70;;
45620;SDS011;31345;51.522;10.702;2024-02-14T04:09:48;6.80;;;4.60;;
45620;SDS011;31345;51.522;10.702;2024-02-14T04:12:16;7.50;;;4.87;;
45620;SDS011;31345;51.522;10.702;2024-02-14T04:14:44;6.87;;;5.07;;
45620;SDS011;31345;51.522;10.702;2024-02-14T04:17:12;9.20;;;4.63;;
45620;SDS011;31345;51.522;10.702;2024-02-14T04:19:45;7.80;;;4.80;;
45620;SDS011;31345;51.522;10.702;2024-02-14T04:22:13;8.43;;;4.67;;
45620;SDS011;31345;51.522;10.702;2024-02-14T04:24:45;7.00;;;4.53;;
45620;SDS011;31345;51.522;10.702;2024-02-14T04:27:19;7.10;;;4.10;;
45620;SDS011;31345;51.522;10.702;2024-02-14T04:29:47;8.77;;;4.57;;
45620;SDS011;31345;51.522;10.702;2024-02-14T04:32:20;8.33;;;4.97;;
45620;SDS011;31345;51.522;10.702;2024-02-14T04:34:53;7.97;;;4.97;;
45620;SDS011;31345;51.522;10.702;2024-02-14T04:37:20;9.57;;;4.60;;
45620;SDS011;31345;51.522;10.702;2024-02-14T04:39:54;8.30;;;4.50;;
45620;SDS011;31345;51.522;10.702;2024-02-14T04:42:22;6.63;;;4.63;;
45620;SDS011;31345;51.522;10.702;2024-02-14T04:44:50;8.87;;;4.73;;
45620;SDS011;31345;51.522;10.702;2024-02-14T04:47:22;11.50;;;5.27;;
45620;SDS011;31345;51.522;10.702;2024-02-14T04:49:50;8.80;;;4.73;;
45620;SDS011;31345;51.522;10.702;2024-02-14T04:52:23;7.57;;;4.70;;
45620;SDS011;31345;51.522;10.702;2024-02-14T04:54:51;7.37;;;4.77;;
45620;SDS011;31345;51.522;10.702;2024-02-14T04:57:20;7.50;;;4.60;;
45620;SDS011;31345;51.522;10.702;2024-02-14T04:59:53;6.50;;;4.73;;
45620;SDS011;31345;51.522;10.702;2024-02-14T05:02:25;8.03;;;4.90;;
45620;SDS011;31345;51.522;10.702;2024-02-14T05:04:59;9.00;;;4.93;;
45620;SDS011;31345;51.522;10.702;2024-02-14T05:07:27;8.27;;;4.43;;
45620;SDS011;31345;51.522;10.702;2024-02-14T05:10:01;9.00;;;4.97;;
45620;SDS011;31345;51.522;10.702;2024-02-14T05:12:31;6.47;;;4.60;;
45620;SDS011;31345;51.522;10.702;2024-02-14T05:15:04;6.70;;;4.27;;
45620;SDS011;31345;51.522;10.702;2024-02-14T05:17:32;7.60;;;5.13;;
45620;SDS011;31345;51.522;10.702;2024-02-14T05:20:06;6.83;;;4.20;;
45620;SDS011;31345;51.522;10.702;2024-02-14T05:22:35;12.13;;;5.13;;
45620;SDS011;31345;51.522;10.702;2024-02-14T05:25:09;6.93;;;4.77;;
45620;SDS011;31345;51.522;10.702;2024-02-14T05:27:43;7.87;;;5.40;;
45620;SDS011;31345;51.522;10.702;2024-02-14T05:30:11;8.23;;;4.60;;
45620;SDS011;31345;51.522;10.702;2024-02-14T05:32:45;7.93;;;5.10;;
45620;SDS011;31345;51.522;10.702;2024-02-14T05:35:13;6.87;;;4.40;;
45620;SDS011;31345;51.522;10.702;2024-02-14T05:37:40;7.83;;;4.37;;
45620;SDS011;31345;51.522;10.702;2024-02-14T05:40:13;8.87;;;4.53;;
45620;SDS011;31345;51.522;10.702;2024-02-14T05:42:47;8.30;;;3.83;;
45620;SDS011;31345;51.522;10.702;2024-02-14T05:45:20;6.90;;;4.03;;
45620;SDS011;31345;51.522;10.702;2024-02-14T05:47:48;7.50;;;3.60;;
45620;SDS011;31345;51.522;10.702;2024-02-14T05:50:20;6.33;;;3.87;;
45620;SDS011;31345;51.522;10.702;2024-02-14T05:52:48;5.90;;;3.73;;
45620;SDS011;31345;51.522;10.702;2024-02-14T05:55:16;7.03;;;3.60;;
45620;SDS011;31345;51.522;10.702;2024-02-14T05:57:50;8.87;;;3.33;;
45620;SDS011;31345;51.522;10.702;2024-02-14T06:00:23;6.43;;;3.83;;
45620;SDS011;31345;51.522;10.702;2024-02-14T06:02:51;8.03;;;4.00;;
45620;SDS011;31345;51.522;10.702;2024-02-14T06:05:18;6.50;;;4.10;;
45620;SDS011;31345;51.522;10.702;2024-02-14T06:07:46;6.10;;;4.13;;
45620;SDS011;31345;51.522;10.702;2024-02-14T06:10:19;5.93;;;3.90;;
45620;SDS011;31345;51.522;10.702;2024-02-14T06:12:53;7.60;;;3.77;;
45620;SDS011;31345;51.522;10.702;2024-02-14T06:15:21;8.43;;;3.87;;
45620;SDS011;31345;51.522;10.702;2024-02-14T06:17:53;7.90;;;4.07;;
45620;SDS011;31345;51.522;10.702;2024-02-14T06:20:26;5.20;;;3.33;;
45620;SDS011;31345;51.522;10.702;2024-02-14T06:22:54;6.63;;;4.07;;
45620;SDS011;31345;51.522;10.702;2024-02-14T06:25:21;6.60;;;3.40;;
45620;SDS011;31345;51.522;10.702;2024-02-14T06:27:55;9.37;;;3.40;;
45620;SDS011;31345;51.522;10.702;2024-02-14T06:30:23;5.80;;;3.70;;
45620;SDS011;31345;51.522;10.702;2024-02-14T06:32:56;6.03;;;4.03;;
45620;SDS011;31345;51.522;10.702;2024-02-14T06:35:31;5.87;;;3.57;;
45620;SDS011;31345;51.522;10.702;2024-02-14T06:38:04;7.67;;;5.20;;
45620;SDS011;31345;51.522;10.702;2024-02-14T06:40:37;6.80;;;4.95;;
45620;SDS011;31345;51.522;10.702;2024-02-14T06:43:07;7.90;;;4.00;;
45620;SDS011;31345;51.522;10.702;2024-02-14T06:45:40;6.33;;;3.57;;
45620;SDS011;31345;51.522;10.702;2024-02-14T06:48:08;8.57;;;3.90;;
45620;SDS011;31345;51.522;10.702;2024-02-14T06:50:35;5.70;;;3.53;;
45620;SDS011;31345;51.522;10.702;2024-02-14T06:53:08;5.23;;;3.10;;
45620;SDS011;31345;51.522;10.702;2024-02-14T06:55:36;6.13;;;3.67;;
45620;SDS011;31345;51.522;10.702;2024-02-14T06:58:03;7.07;;;3.70;;
45620;SDS011;31345;51.522;10.702;2024-02-14T07:00:38;7.20;;;3.50;;
45620;SDS011;31345;51.522;10.702;2024-02-14T07:03:06;7.33;;;3.70;;
45620;SDS011;31345;51.522;10.702;2024-02-14T07:05:33;5.70;;;2.80;;
45620;SDS011;31345;51.522;10.702;2024-02-14T07:08:06;7.37;;;3.37;;
45620;SDS011;31345;51.522;10.702;2024-02-14T07:10:39;7.77;;;3.10;;
45620;SDS011;31345;51.522;10.702;2024-02-14T07:13:06;4.70;;;3.00;;
45620;SDS011;31345;51.522;10.702;2024-02-14T07:15:34;5.30;;;2.83;;
45620;SDS011;31345;51.522;10.702;2024-02-14T07:18:08;7.32;;;3.35;;
45620;SDS011;31345;51.522;10.702;2024-02-14T07:20:41;4.82;;;3.33;;
45620;SDS011;31345;51.522;10.702;2024-02-14T07:23:09;4.47;;;3.00;;
45620;SDS011;31345;51.522;10.702;2024-02-14T07:25:42;8.27;;;3.43;;
45620;SDS011;31345;51.522;10.702;2024-02-14T07:28:10;5.25;;;3.45;;
45620;SDS011;31345;51.522;10.702;2024-02-14T07:30:38;5.83;;;3.30;;
45620;SDS011;31345;51.522;10.702;2024-02-14T07:33:12;5.28;;;3.00;;
45620;SDS011;31345;51.522;10.702;2024-02-14T07:35:40;4.70;;;2.70;;
45620;SDS011;31345;51.522;10.702;2024-02-14T07:38:08;4.27;;;3.00;;
45620;SDS011;31345;51.522;10.702;2024-02-14T07:40:41;6.18;;;3.30;;
45620;SDS011;31345;51.522;10.702;2024-02-14T07:43:14;9.30;;;3.13;;
45620;SDS011;31345;51.522;10.702;2024-02-14T07:45:41;8.00;;;3.25;;
45620;SDS011;31345;51.522;10.702;2024-02-14T07:48:09;5.53;;;3.10;;
45620;SDS011;31345;51.522;10.702;2024-02-14T07:50:38;6.53;;;3.53;;
45620;SDS011;31345;51.522;10.702;2024-02-14T07:53:11;8.55;;;3.38;;
45620;SDS011;31345;51.522;10.702;2024-02-14T07:55:38;5.72;;;3.28;;
45620;SDS011;31345;51.522;10.702;2024-02-14T07:58:11;5.55;;;2.97;;
45620;SDS011;31345;51.522;10.702;2024-02-14T08:00:39;5.50;;;2.95;;
45620;SDS011;31345;51.522;10.702;2024-02-14T08:03:12;8.35;;;3.22;;
45620;SDS011;31345;51.522;10.702;2024-02-14T08:05:41;4.82;;;2.70;;
45620;SDS011;31345;51.522;10.702;2024-02-14T08:08:09;5.30;;;2.60;;
45620;SDS011;31345;51.522;10.702;2024-02-14T08:10:37;6.68;;;2.97;;
45620;SDS011;31345;51.522;10.702;2024-02-14T08:13:04;4.90;;;2.42;;
45620;SDS011;31345;51.522;10.702;2024-02-14T08:15:37;5.75;;;2.50;;
45620;SDS011;31345;51.522;10.702;2024-02-14T08:18:05;5.60;;;2.67;;
45620;SDS011;31345;51.522;10.702;2024-02-14T08:20:32;6.07;;;2.92;;
45620;SDS011;31345;51.522;10.702;2024-02-14T08:23:02;5.45;;;2.75;;
45620;SDS011;31345;51.522;10.702;2024-02-14T08:25:35;5.50;;;2.63;;
45620;SDS011;31345;51.522;10.702;2024-02-14T08:28:07;4.43;;;2.13;;
45620;SDS011;31345;51.522;10.702;2024-02-14T08:30:41;7.85;;;2.60;;
45620;SDS011;31345;51.522;10.702;2024-02-14T08:33:13;4.53;;;2.38;;
45620;SDS011;31345;51.522;10.702;2024-02-14T08:35:41;6.65;;;2.70;;
45620;SDS011;31345;51.522;10.702;2024-02-14T08:38:16;6.68;;;2.22;;
45620;SDS011;31345;51.522;10.702;2024-02-14T08:40:43;4.32;;;2.50;;
45620;SDS011;31345;51.522;10.702;2024-02-14T08:43:11;5.60;;;2.25;;
45620;SDS011;31345;51.522;10.702;2024-02-14T08:45:38;5.68;;;2.40;;
45620;SDS011;31345;51.522;10.702;2024-02-14T08:48:06;6.18;;;2.50;;
45620;SDS011;31345;51.522;10.702;2024-02-14T08:50:34;4.90;;;2.17;;
45620;SDS011;31345;51.522;10.702;2024-02-14T08:53:02;4.78;;;2.47;;
45620;SDS011;31345;51.522;10.702;2024-02-14T08:55:31;6.45;;;2.55;;
45620;SDS011;31345;51.522;10.702;2024-02-14T08:58:05;5.15;;;2.40;;
45620;SDS011;31345;51.522;10.702;2024-02-14T09:00:35;5.93;;;2.53;;
45620;SDS011;31345;51.522;10.702;2024-02-14T09:03:09;5.75;;;2.38;;
45620;SDS011;31345;51.522;10.702;2024-02-14T09:05:42;5.13;;;2.58;;
45620;SDS011;31345;51.522;10.702;2024-02-14T09:08:15;6.35;;;2.13;;
45620;SDS011;31345;51.522;10.702;2024-02-14T09:10:49;4.75;;;2.38;;
45620;SDS011;31345;51.522;10.702;2024-02-14T09:13:21;5.53;;;2.38;;
45620;SDS011;31345;51.522;10.702;2024-02-14T09:15:54;10.27;;;2.55;;
45620;SDS011;31345;51.522;10.702;2024-02-14T09:18:22;6.80;;;2.70;;
45620;SDS011;31345;51.522;10.702;2024-02-14T09:20:56;6.68;;;2.30;;
45620;SDS011;31345;51.522;10.702;2024-02-14T09:23:29;5.05;;;2.45;;
45620;SDS011;31345;51.522;10.702;2024-02-14T09:26:04;3.25;;;2.15;;
45620;SDS011;31345;51.522;10.702;2024-02-14T09:28:39;3.72;;;2.38;;
45620;SDS011;31345;51.522;10.702;2024-02-14T09:31:07;5.63;;;2.85;;
45620;SDS011;31345;51.522;10.702;2024-02-14T09:33:37;4.47;;;2.70;;
45620;SDS011;31345;51.522;10.702;2024-02-14T09:36:05;4.80;;;2.72;;
45620;SDS011;31345;51.522;10.702;2024-02-14T09:38:38;7.53;;;2.95;;
45620;SDS011;31345;51.522;10.702;2024-02-14T09:41:14;4.72;;;2.60;;
45620;SDS011;31345;51.522;10.702;2024-02-14T09:43:46;5.72;;;2.28;;
45620;SDS011;31345;51.522;10.702;2024-02-14T09:46:13;8.98;;;2.63;;
45620;SDS011;31345;51.522;10.702;2024-02-14T09:48:47;4.57;;;2.50;;
45620;SDS011;31345;51.522;10.702;2024-02-14T09:51:20;4.18;;;2.35;;
45620;SDS011;31345;51.522;10.702;2024-02-14T09:53:50;4.43;;;2.33;;
45620;SDS011;31345;51.522;10.702;2024-02-14T09:56:22;4.47;;;2.38;;
45620;SDS011;31345;51.522;10.702;2024-02-14T09:58:50;6.35;;;3.10;;
45620;SDS011;31345;51.522;10.702;2024-02-14T10:01:27;4.47;;;2.53;;
45620;SDS011;31345;51.522;10.702;2024-02-14T10:03:55;5.82;;;2.35;;
45620;SDS011;31345;51.522;10.702;2024-02-14T10:06:22;4.63;;;3.03;;
45620;SDS011;31345;51.522;10.702;2024-02-14T10:08:51;5.85;;;3.28;;
45620;SDS011;31345;51.522;10.702;2024-02-14T10:11:25;6.18;;;3.17;;
45620;SDS011;31345;51.522;10.702;2024-02-14T10:13:53;3.25;;;2.40;;
45620;SDS011;31345;51.522;10.702;2024-02-14T10:16:26;5.32;;;2.53;;
45620;SDS011;31345;51.522;10.702;2024-02-14T10:18:59;4.18;;;2.58;;
45620;SDS011;31345;51.522;10.702;2024-02-14T10:21:31;8.30;;;4.43;;
45620;SDS011;31345;51.522;10.702;2024-02-14T10:23:59;5.18;;;3.05;;
45620;SDS011;31345;51.522;10.702;2024-02-14T10:26:28;4.90;;;2.80;;
45620;SDS011;31345;51.522;10.702;2024-02-14T10:28:57;4.40;;;2.53;;
45620;SDS011;31345;51.522;10.702;2024-02-14T10:31:30;3.72;;;2.15;;
45620;SDS011;31345;51.522;10.702;2024-02-14T10:34:02;6.80;;;2.35;;
45620;SDS011;31345;51.522;10.702;2024-02-14T10:36:33;5.38;;;2.35;;
45620;SDS011;31345;51.522;10.702;2024-02-14T10:39:06;5.88;;;2.25;;
45620;SDS011;31345;51.522;10.702;2024-02-14T10:41:42;3.15;;;1.80;;
45620;SDS011;31345;51.522;10.702;2024-02-14T10:44:14;7.63;;;2.45;;
45620;SDS011;31345;51.522;10.702;2024-02-14T10:46:47;4.70;;;2.30;;
45620;SDS011;31345;51.522;10.702;2024-02-14T10:49:19;8.15;;;2.90;;
45620;SDS011;31345;51.522;10.702;2024-02-14T10:51:48;3.20;;;1.80;;
45620;SDS011;31345;51.522;10.702;2024-02-14T10:54:19;6.13;;;2.70;;
45620;SDS011;31345;51.522;10.702;2024-02-14T10:56:54;8.40;;;2.10;;
45620;SDS011;31345;51.522;10.702;2024-02-14T10:59:25;4.07;;;2.38;;
45620;SDS011;31345;51.522;10.702;2024-02-14T11:01:54;4.05;;;2.10;;
45620;SDS011;31345;51.522;10.702;2024-02-14T11:04:28;4.30;;;1.90;;
45620;SDS011;31345;51.522;10.702;2024-02-14T11:06:58;3.78;;;1.88;;
45620;SDS011;31345;51.522;10.702;2024-02-14T11:09:31;5.03;;;2.22;;
45620;SDS011;31345;51.522;10.702;2024-02-14T11:12:07;2.85;;;2.17;;
45620;SDS011;31345;51.522;10.702;2024-02-14T11:14:41;5.95;;;2.35;;
45620;SDS011;31345;51.522;10.702;2024-02-14T11:17:16;4.03;;;2.38;;
45620;SDS011;31345;51.522;10.702;2024-02-14T11:19:57;3.47;;;1.90;;
45620;SDS011;31345;51.522;10.702;2024-02-14T11:22:25;3.20;;;1.80;;
45620;SDS011;31345;51.522;10.702;2024-02-14T11:24:52;3.05;;;1.80;;
45620;SDS011;31345;51.522;10.702;2024-02-14T11:27:22;7.57;;;2.05;;
45620;SDS011;31345;51.522;10.702;2024-02-14T11:29:53;4.90;;;1.95;;
45620;SDS011;31345;51.522;10.702;2024-02-14T11:32:27;5.85;;;2.35;;
45620;SDS011;31345;51.522;10.702;2024-02-14T11:34:54;3.20;;;2.10;;
45620;SDS011;31345;51.522;10.702;2024-02-14T11:37:27;5.43;;;2.28;;
45620;SDS011;31345;51.522;10.702;2024-02-14T11:39:55;4.57;;;2.45;;
45620;SDS011;31345;51.522;10.702;2024-02-14T11:42:25;4.97;;;2.15;;
45620;SDS011;31345;51.522;10.702;2024-02-14T11:44:53;4.93;;;2.00;;
45620;SDS011;31345;51.522;10.702;2024-02-14T11:47:27;4.70;;;2.53;;
45620;SDS011;31345;51.522;10.702;2024-02-14T11:49:55;4.63;;;2.30;;
45620;SDS011;31345;51.522;10.702;2024-02-14T11:52:24;4.82;;;2.40;;
45620;SDS011;31345;51.522;10.702;2024-02-14T11:54:58;4.97;;;2.50;;
45620;SDS011;31345;51.522;10.702;2024-02-14T11:57:27;3.92;;;2.33;;
45620;SDS011;31345;51.522;10.702;2024-02-14T11:59:55;4.35;;;2.60;;
45620;SDS011;31345;51.522;10.702;2024-02-14T12:02:29;3.70;;;2.22;;
45620;SDS011;31345;51.522;10.702;2024-02-14T12:04:58;6.30;;;2.63;;
45620;SDS011;31345;51.522;10.702;2024-02-14T12:07:30;4.97;;;2.83;;
45620;SDS011;31345;51.522;10.702;2024-02-14T12:10:03;5.07;;;2.30;;
45620;SDS011;31345;51.522;10.702;2024-02-14T12:12:33;5.30;;;3.30;;
45620;SDS011;31345;51.522;10.702;2024-02-14T12:15:09;6.57;;;3.42;;
45620;SDS011;31345;51.522;10.702;2024-02-14T12:17:42;6.13;;;3.30;;
45620;SDS011;31345;51.522;10.702;2024-02-14T12:20:10;4.68;;;2.67;;
45620;SDS011;31345;51.522;10.702;2024-02-14T12:22:49;4.82;;;2.55;;
45620;SDS011;31345;51.522;10.702;2024-02-14T12:25:17;7.35;;;3.00;;
45620;SDS011;31345;51.522;10.702;2024-02-14T12:27:51;3.72;;;2.67;;
45620;SDS011;31345;51.522;10.702;2024-02-14T12:30:26;3.78;;;2.55;;
45620;SDS011;31345;51.522;10.702;2024-02-14T12:33:15;5.88;;;2.88;;
45620;SDS011;31345;51.522;10.702;2024-02-14T12:35:48;4.25;;;2.80;;
45620;SDS011;31345;51.522;10.702;2024-02-14T12:38:21;6.47;;;2.70;;
45620;SDS011;31345;51.522;10.702;2024-02-14T12:40:50;6.63;;;2.60;;
45620;SDS011;31345;51.522;10.702;2024-02-14T12:43:26;4.38;;;2.50;;
45620;SDS011;31345;51.522;10.702;2024-02-14T12:45:59;4.15;;;2.45;;
45620;SDS011;31345;51.522;10.702;2024-02-14T12:48:32;5.13;;;2.58;;
45620;SDS011;31345;51.522;10.702;2024-02-14T12:51:05;5.68;;;3.30;;
45620;SDS011;31345;51.522;10.702;2024-02-14T12:53:38;5.50;;;2.55;;
45620;SDS011;31345;51.522;10.702;2024-02-14T12:56:06;5.75;;;2.88;;
45620;SDS011;31345;51.522;10.702;2024-02-14T12:58:35;5.32;;;2.40;;
45620;SDS011;31345;51.522;10.702;2024-02-14T13:01:03;4.65;;;2.60;;
45620;SDS011;31345;51.522;10.702;2024-02-14T13:03:37;3.42;;;2.10;;
45620;SDS011;31345;51.522;10.702;2024-02-14T13:06:05;5.93;;;2.42;;
45620;SDS011;31345;51.522;10.702;2024-02-14T13:08:38;3.63;;;2.50;;
45620;SDS011;31345;51.522;10.702;2024-02-14T13:11:10;6.80;;;2.65;;
45620;SDS011;31345;51.522;10.702;2024-02-14T13:13:46;4.00;;;2.38;;
45620;SDS011;31345;51.522;10.702;2024-02-14T13:16:14;2.95;;;2.17;;
45620;SDS011;31345;51.522;10.702;2024-02-14T13:18:47;4.47;;;2.47;;
45620;SDS011;31345;51.522;10.702;2024-02-14T13:21:15;6.15;;;2.63;;
45620;SDS011;31345;51.522;10.702;2024-02-14T13:23:48;3.80;;;2.30;;
45620;SDS011;31345;51.522;10.702;2024-02-14T13:26:21;4.68;;;2.50;;
45620;SDS011;31345;51.522;10.702;2024-02-14T13:28:55;5.68;;;3.00;;
45620;SDS011;31345;51.522;10.702;2024-02-14T13:31:22;5.45;;;2.72;;
45620;SDS011;31345;51.522;10.702;2024-02-14T13:33:55;3.65;;;2.20;;
45620;SDS011;31345;51.522;10.702;2024-02-14T13:36:23;6.07;;;2.65;;
45620;SDS011;31345;51.522;10.702;2024-02-14T13:38:51;5.35;;;2.92;;
45620;SDS011;31345;51.522;10.702;2024-02-14T13:41:23;4.05;;;2.35;;
45620;SDS011;31345;51.522;10.702;2024-02-14T13:43:51;4.53;;;2.28;;
45620;SDS011;31345;51.522;10.702;2024-02-14T13:46:25;7.90;;;2.25;;
45620;SDS011;31345;51.522;10.702;2024-02-14T13:48:58;4.10;;;2.58;;
45620;SDS011;31345;51.522;10.702;2024-02-14T13:51:31;4.50;;;2.45;;
45620;SDS011;31345;51.522;10.702;2024-02-14T13:54:04;3.58;;;2.28;;
45620;SDS011;31345;51.522;10.702;2024-02-14T13:56:32;4.03;;;2.70;;
45620;SDS011;31345;51.522;10.702;2024-02-14T13:59:00;5.35;;;2.53;;
45620;SDS011;31345;51.522;10.702;2024-02-14T14:01:29;4.88;;;2.45;;
45620;SDS011;31345;51.522;10.702;2024-02-14T14:03:57;3.58;;;2.05;;
45620;SDS011;31345;51.522;10.702;2024-02-14T14:06:24;7.20;;;2.90;;
45620;SDS011;31345;51.522;10.702;2024-02-14T14:08:57;6.53;;;2.30;;
45620;SDS011;31345;51.522;10.702;2024-02-14T14:11:31;6.55;;;2.30;;
45620;SDS011;31345;51.522;10.702;2024-02-14T14:14:03;5.85;;;2.47;;
45620;SDS011;31345;51.522;10.702;2024-02-14T14:16:38;13.40;;;3.15;;
45620;SDS011;31345;51.522;10.702;2024-02-14T14:19:05;5.38;;;2.50;;
45620;SDS011;31345;51.522;10.702;2024-02-14T14:21:33;4.22;;;2.38;;
45620;SDS011;31345;51.522;10.702;2024-02-14T14:24:01;4.90;;;2.90;;
45620;SDS011;31345;51.522;10.702;2024-02-14T14:26:33;4.85;;;2.90;;
45620;SDS011;31345;51.522;10.702;2024-02-14T14:29:07;4.20;;;2.95;;
45620;SDS011;31345;51.522;10.702;2024-02-14T14:31:41;5.25;;;3.15;;
45620;SDS011;31345;51.522;10.702;2024-02-14T14:34:14;5.70;;;2.80;;
45620;SDS011;31345;51.522;10.702;2024-02-14T14:36:46;4.38;;;2.80;;
45620;SDS011;31345;51.522;10.702;2024-02-14T14:39:14;6.53;;;3.13;;
45620;SDS011;31345;51.522;10.702;2024-02-14T14:41:42;6.22;;;2.95;;
45620;SDS011;31345;51.522;10.702;2024-02-14T14:44:15;5.85;;;3.10;;
45620;SDS011;31345;51.522;10.702;2024-02-14T14:46:49;6.35;;;2.92;;
45620;SDS011;31345;51.522;10.702;2024-02-14T14:49:22;3.70;;;2.60;;
45620;SDS011;31345;51.522;10.702;2024-02-14T14:51:54;4.57;;;2.97;;
45620;SDS011;31345;51.522;10.702;2024-02-14T14:54:28;3.38;;;2.30;;